• Join FlightAware (Why Join?)
  • Login
  • US Flag 
12:26PM EST


 

Airport Tracker/Info


-or-


 

Live Flight TrackerFlight Track Log ✈ DAL6197 ✈ 18-Sep-2013 ✈ KGRR - KLGA

Flight Track Log - Related Links

Times and Time Zones

All times are in EDT time to prevent confusion due to time zone crossing. See the DAL6197 flight status page for this flight to view local times or setup timezone preferences in your user account.

Time Position Orientation Groundspeed Altitude Reporting Facility
EDT Latitude Longitude Course Direction KTS MPH feet Rate Location/Type
06:02AM 42.8914 -85.4642 118° Southeast 189 217 2,600  Level Cleveland Center
06:03AM 42.8972 -85.3739 85° East 249 287 5,200 2,820 Climbing Cleveland Center
06:04AM 42.8561 -85.2875 123° Southeast 267 307 8,300 2,820 Climbing Chicago Center
06:05AM 42.8142 -85.1911 121° Southeast 292 336 11,000 2,280 Climbing Chicago Center
06:06AM 42.7658 -85.0781 120° Southeast 341 392 12,900 1,980 Climbing Chicago Center
06:07AM 42.7869 -84.7915 118° Southeast  Level Estimated
06:07AM 42.7147 -84.9569 120° Southeast 368 423 15,000  Level Chicago Center
06:08AM 42.6589 -84.8308 121° Southeast 386 444 17,500 2,340 Climbing Chicago Center
06:09AM 42.6047 -84.7058 120° Southeast 386 444 19,800 1,980 Climbing Chicago Center
06:10AM 42.5500 -84.5803 121° Southeast 387 445 21,500 1,560 Climbing Chicago Center
06:11AM 42.4903 -84.4453 121° Southeast 413 475 23,000 1,560 Climbing Chicago Center
06:12AM 42.4400 -84.2803 112° Southeast 447 514 24,700 1,500 Climbing Cleveland Center
06:13AM 42.4128 -84.1222 103° East 435 501 26,200 1,320 Climbing Cleveland Center
06:14AM 42.3853 -83.9586 103° East 444 511 27,400 1,080 Climbing Cleveland Center
06:15AM 42.3556 -83.7933 104° East 452 520 28,500 1,200 Climbing Cleveland Center
06:16AM 42.3200 -83.5906 103° East 461 531 29,900 1,140 Climbing Cleveland Center
06:17AM 42.2942 -83.4292 102° East 470 541 30,900 1,020 Climbing Cleveland Center
06:18AM 42.2603 -83.2569 105° East 470 541 32,000 1,080 Climbing Cleveland Center
06:19AM 42.2311 -83.0950 104° East 470 541 33,100 1,080 Climbing Cleveland Center
06:20AM 42.1994 -82.9233 104° East 472 543 34,200 1,080 Climbing Cleveland Center
06:21AM 42.1683 -82.7519 104° East 471 542 35,300 1,080 Climbing Cleveland Center
06:22AM 42.1311 -82.5478 104° East 469 540 36,500 960 Climbing Cleveland Center
06:23AM 42.1008 -82.3772 103° East 469 540 37,300 600 Climbing Cleveland Center
06:24AM 42.0658 -82.2039 105° East 479 551 37,800 480 Climbing Cleveland Center
06:25AM 42.0339 -82.0400 105° East 482 555 38,300 540 Climbing Cleveland Center
06:26AM 42.0008 -81.8614 104° East 486 559 39,000 660 Climbing Cleveland Center
06:27AM 41.9658 -81.6856 105° East 483 556 39,700 540 Climbing Cleveland Center
06:28AM 41.9325 -81.5106 104° East 478 550 40,200 480 Climbing Cleveland Center
06:29AM 41.8983 -81.3378 105° East 474 545 40,700 360 Climbing Cleveland Center
06:30AM 41.8633 -81.1661 105° East 472 543 41,000 120 Climbing Cleveland Center
06:31AM 41.8303 -80.9947 104° East 468 539 41,000  Level Cleveland Center
06:32AM 41.7939 -80.8194 106° East 478 550 41,000  Level Cleveland Center
06:33AM 41.7592 -80.6444 105° East 481 554 41,000  Level Cleveland Center
06:34AM 41.7225 -80.4700 106° East 482 555 41,000  Level Cleveland Center
06:35AM 41.6864 -80.2944 105° East 486 559 41,000  Level Cleveland Center
06:36AM 41.6472 -80.1139 106° East 482 555 41,000  Level Cleveland Center
06:37AM 41.6147 -79.9472 105° East 482 555 41,000  Level Cleveland Center
06:38AM 41.5697 -79.7406 106° East 484 557 41,000  Level Cleveland Center
06:39AM 41.5336 -79.5694 106° East 482 555 41,000  Level Cleveland Center
06:40AM 41.4961 -79.3997 106° East 480 552 41,000  Level Cleveland Center
06:41AM 41.4594 -79.2306 106° East 479 551 41,000 -240 Level Cleveland Center
06:43AM 41.4214 -79.0611 107° East 476 548 40,600 -1,320 Descending Cleveland Center
06:44AM 41.3811 -78.8750 106° East 486 559 38,400 -2,160 Descending Cleveland Center
06:45AM 41.3419 -78.7025 107° East 487 560 36,300 -1,800 Descending Cleveland Center
06:46AM 41.3033 -78.5292 106° East 488 562 34,800 -1,380 Descending Cleveland Center
06:47AM 41.2644 -78.3567 107° East 502 578 33,600 -900 Descending New York Center
06:48AM 41.2214 -78.1806 108° East 502 578 33,000 -300 Descending New York Center
06:49AM 41.1972 -77.9986 100° East 502 578 33,000  Level New York Center
06:50AM 41.1747 -77.8169 99° East 496 571 33,000  Level New York Center
06:51AM 41.1503 -77.6325 100° East 496 571 33,000 -840 Level New York Center
06:52AM 41.1269 -77.4567 100° East 489 563 31,400 -1,440 Descending New York Center
06:53AM 41.1031 -77.2833 100° East 483 556 30,200 -1,140 Descending New York Center
06:54AM 41.0794 -77.1050 100° East 483 556 29,200 -960 Descending New York Center
06:55AM 41.0572 -76.9322 100° East 483 556 28,300 -2,400 Descending New York Center
06:56AM 41.0347 -76.7625 100° East 473 544 24,400 -3,660 Descending New York Center
06:57AM 41.0036 -76.5947 104° East 445 512 21,000 -2,640 Descending New York Center
06:58AM 40.9669 -76.4486 108° East 432 497 19,200 -1,500 Descending New York Center
06:59AM 40.9364 -76.3031 105° East 404 465 18,100 -600 Descending New York Center
07:00AM 40.9031 -76.1631 107° East 398 458 18,000 -720 Descending New York Center
07:01AM 40.8714 -76.0372 108° East 403 464 16,700 -1,920 Descending New York Center
07:02AM 40.8358 -75.8972 109° East 398 458 14,200 -1,860 Descending New York Center
07:03AM 40.8003 -75.7519 108° East 389 448 13,000 -600 Descending New York Center
07:04AM 40.7681 -75.6236 108° East 375 432 13,000  Level New York Center
07:05AM 40.7397 -75.5011 107° East 361 415 13,000 -360 Level New York Center
07:06AM 40.7008 -75.3806 113° Southeast 361 415 12,300 -900 Descending New York Center
07:07AM 40.6575 -75.2600 115° Southeast 361 415 11,200 -1,080 Descending New York Center
07:08AM 40.6142 -75.1397 115° Southeast 361 415 10,200 -600 Descending New York Center
07:09AM 40.5783 -75.0364 115° Southeast 361 415 10,000 -120 Descending New York Center
07:10AM 40.5444 -74.9306 113° Southeast 328 377 10,000  Level New York Center
07:11AM 40.5167 -74.8331 111° Southeast 291 335 10,000  Level New York Center
07:12AM 40.4828 -74.7275 113° Southeast 280 322 10,000 -360 Level New York Center
07:13AM 40.4378 -74.6375 123° Southeast 286 329 9,300 -540 Descending New York Center
07:14AM 40.3925 -74.5561 126° Southeast 291 335 9,000 -180 Descending New York Center
07:15AM 40.4000 -74.4556 84° East 264 304 9,000 -300 Level New York Center
07:16AM 40.4175 -74.3611 76° East 264 304 8,400 -960 Descending New York Center
07:17AM 40.4333 -74.2500 79° East 262 302 7,000 -720 Descending New York TRACON
07:18AM 40.4833 -74.1833 45° Northeast 278 320 7,000 -780 Level New York TRACON
07:19AM 40.5500 -74.1167 37° Northeast 278 320 5,600 -1,560 Descending New York TRACON
07:20AM 40.6000 -74.0667 37° Northeast 263 303 4,100 -840 Descending New York TRACON
07:21AM 40.6500 -74.0000 45° Northeast 259 298 4,000 -60 Descending New York TRACON
07:22AM 40.7000 -73.9500 37° Northeast 267 307 4,000  Level New York TRACON
07:23AM 40.7500 -73.8667 52° Northeast 266 306 4,000  Level New York TRACON
07:24AM 40.7833 -73.7833 62° Northeast 264 304 4,000  Level New York TRACON
07:25AM 40.8333 -73.7333 37° Northeast 211 243 4,000 -480 Level New York TRACON
07:26AM 40.8833 -73.7167 14° North 189 217 3,100 -600 Descending New York TRACON
07:27AM 40.9000 -73.7833 288° West 195 224 2,900 -780 Descending New York TRACON
07:28AM 40.8500 -73.8167 207° Southwest 175 201 1,700 -1,020 Descending New York TRACON
07:29AM 40.8333 -73.8333 217° Southwest 123 142 1,000 -720 Descending New York TRACON
07:29AM 40.8000 -73.8667 217° Southwest 129 148 400 -660 Descending New York TRACON
07:31AM 40.7772 -73.8726 224° Southwest  Level Estimated
07:38AM 40.7772 -73.8726 224° Southwest  Level Estimated
07:39AM 40.7772 -73.8726 224° Southwest  Level Estimated
07:40AM 40.7772 -73.8726 224° Southwest  Level Estimated